Time;durP1;ratioP1;P1;durP2;ratioP2;P2;SDS_P1;SDS_P2;PMS_P1;PMS_P2;Temp;Humidity;BMP_temperature;BMP_pressure;BME280_temperature;BME280_humidity;BME280_pressure;Samples;Min_cycle;Max_cycle;Signal;HPM_P1;HPM_P2
2023/02/28 00:00:13;;;;;;;0.97;0.30;;;2.20;84.80;;;;;;5073002;28;20062;-90
2023/02/28 00:02:42;;;;;;;1.60;0.27;;;2.30;84.70;;;;;;5070217;28;20080;-90
2023/02/28 00:05:16;;;;;;;1.37;0.47;;;2.40;84.50;;;;;;5065939;28;20037;-89
2023/02/28 00:07:43;;;;;;;1.33;0.40;;;2.50;84.40;;;;;;5054328;28;20044;-89
2023/02/28 00:10:20;;;;;;;1.00;0.40;;;2.50;84.20;;;;;;5073953;28;20044;-89
2023/02/28 00:12:52;;;;;;;1.07;0.40;;;2.60;84.10;;;;;;5038829;28;20040;-90
2023/02/28 00:15:20;;;;;;;1.20;0.50;;;2.70;84.00;;;;;;5085547;28;20054;-85
2023/02/28 00:17:47;;;;;;;1.47;0.60;;;2.80;83.90;;;;;;5055009;28;20437;-85
2023/02/28 00:20:15;;;;;;;1.57;0.40;;;2.80;83.80;;;;;;5053342;28;20040;-85
2023/02/28 00:22:53;;;;;;;1.17;0.50;;;2.80;83.80;;;;;;5066190;28;20048;-85
2023/02/28 00:25:23;;;;;;;1.00;0.57;;;2.90;83.80;;;;;;5078174;28;20445;-85
2023/02/28 00:27:53;;;;;;;2.57;0.93;;;2.90;83.80;;;;;;5049747;28;20106;-85
2023/02/28 00:30:24;;;;;;;1.10;0.50;;;2.90;83.70;;;;;;5042260;28;20072;-85
2023/02/28 00:32:52;;;;;;;1.50;0.60;;;3.00;83.70;;;;;;5052331;28;20057;-85
2023/02/28 00:35:28;;;;;;;1.40;0.60;;;3.00;83.70;;;;;;5068210;28;20048;-84
2023/02/28 00:37:55;;;;;;;1.02;0.50;;;3.00;83.60;;;;;;5055445;28;20051;-85
2023/02/28 00:40:22;;;;;;;1.57;0.50;;;3.00;83.60;;;;;;5071780;28;20070;-85
2023/02/28 00:42:50;;;;;;;3.03;0.80;;;3.10;83.70;;;;;;5072042;28;20147;-85
2023/02/28 00:45:17;;;;;;;1.00;0.40;;;3.10;83.70;;;;;;5066646;28;20047;-85
2023/02/28 00:47:46;;;;;;;0.85;0.40;;;3.10;83.70;;;;;;5055269;28;20045;-85
2023/02/28 00:50:13;;;;;;;0.75;0.30;;;3.10;83.70;;;;;;5052443;28;20136;-85
2023/02/28 00:52:43;;;;;;;1.55;0.50;;;3.10;83.70;;;;;;5060554;28;20489;-85
2023/02/28 00:55:11;;;;;;;2.30;0.60;;;3.10;83.80;;;;;;5065362;28;20382;-85
2023/02/28 00:57:47;;;;;;;2.60;0.60;;;3.10;83.80;;;;;;5085294;28;20045;-90
2023/02/28 01:00:15;;;;;;;2.03;0.50;;;3.20;83.80;;;;;;5072207;28;20057;-90
2023/02/28 01:02:43;;;;;;;0.93;0.40;;;3.20;83.80;;;;;;5063240;28;20041;-90
2023/02/28 01:05:11;;;;;;;2.67;0.55;;;3.20;83.80;;;;;;5051628;28;20040;-89
2023/02/28 01:07:38;;;;;;;1.30;0.50;;;3.20;83.80;;;;;;5055751;28;20055;-89
2023/02/28 01:10:06;;;;;;;1.55;0.43;;;3.20;83.90;;;;;;5061038;28;20478;-90
2023/02/28 01:12:33;;;;;;;1.20;0.43;;;3.20;83.90;;;;;;5057787;28;20045;-89
2023/02/28 01:15:04;;;;;;;1.52;0.57;;;3.20;83.90;;;;;;5069107;28;20049;-90
2023/02/28 01:17:35;;;;;;;1.37;0.60;;;3.20;83.90;;;;;;5055906;28;20045;-90
2023/02/28 01:20:05;;;;;;;1.65;0.50;;;3.20;84.00;;;;;;5084421;28;20051;-90
2023/02/28 01:22:35;;;;;;;0.93;0.45;;;3.20;83.90;;;;;;5068564;28;20040;-90
2023/02/28 01:25:06;;;;;;;0.70;0.40;;;3.20;84.00;;;;;;5057433;28;20059;-90
2023/02/28 01:27:34;;;;;;;1.38;0.45;;;3.20;84.00;;;;;;5081244;28;20070;-89
2023/02/28 01:30:11;;;;;;;1.77;0.40;;;3.20;84.00;;;;;;5056042;28;20072;-90
2023/02/28 01:32:42;;;;;;;1.50;0.47;;;3.20;84.00;;;;;;5072330;28;20040;-90
2023/02/28 01:35:10;;;;;;;1.55;0.45;;;3.30;84.10;;;;;;5055332;28;20052;-90
2023/02/28 01:37:40;;;;;;;1.10;0.43;;;3.30;84.10;;;;;;5055612;28;20055;-90
2023/02/28 01:40:09;;;;;;;1.90;0.52;;;3.30;84.10;;;;;;5053261;28;20494;-90
2023/02/28 01:42:36;;;;;;;2.47;0.60;;;3.30;84.10;;;;;;5062467;28;20142;-89
2023/02/28 01:45:23;;;;;;;2.72;0.52;;;3.30;84.10;;;;;;5062080;28;20045;-90
2023/02/28 01:48:07;;;;;;;2.28;0.50;;;3.30;84.10;;;;;;5073834;28;20095;-89
2023/02/28 01:50:46;;;;;;;1.58;0.60;;;3.20;84.10;;;;;;5056719;28;20056;-89
2023/02/28 01:53:17;;;;;;;1.10;0.40;;;3.20;84.20;;;;;;5056145;28;20110;-90
2023/02/28 01:55:49;;;;;;;1.20;0.40;;;3.20;84.20;;;;;;5055691;28;20048;-89
2023/02/28 01:58:17;;;;;;;0.88;0.47;;;3.20;84.30;;;;;;5063751;28;20139;-89
2023/02/28 02:00:47;;;;;;;1.73;0.60;;;3.20;84.30;;;;;;5072152;28;20070;-90
2023/02/28 02:03:19;;;;;;;1.35;0.52;;;3.20;84.40;;;;;;5063448;28;20163;-89
2023/02/28 02:05:56;;;;;;;1.35;0.60;;;3.20;84.50;;;;;;5101935;28;20045;-90
2023/02/28 02:08:36;;;;;;;1.30;0.50;;;3.10;84.50;;;;;;5076883;28;20112;-90
2023/02/28 02:11:10;;;;;;;2.22;0.60;;;3.10;84.50;;;;;;5062014;28;20067;-90
2023/02/28 02:13:58;;;;;;;2.20;0.60;;;3.10;84.60;;;;;;5075000;28;20049;-90
2023/02/28 02:16:46;;;;;;;3.33;0.87;;;3.10;84.60;;;;;;5070989;28;20049;-90
2023/02/28 02:19:44;;;;;;;1.25;0.50;;;3.10;84.70;;;;;;5086883;28;20059;-90
2023/02/28 02:22:37;;;;;;;2.30;0.63;;;3.10;84.70;;;;;;5061396;28;20059;-90
2023/02/28 02:25:10;;;;;;;;;;;3.10;84.70;;;;;;5082372;28;20044;-90
2023/02/28 02:28:11;;;;;;;1.80;0.50;;;3.10;84.90;;;;;;5048595;28;19920;-89
2023/02/28 02:31:14;;;;;;;3.63;0.73;;;3.10;84.80;;;;;;5038871;28;20048;-90
2023/02/28 02:34:03;;;;;;;1.88;0.50;;;3.10;84.80;;;;;;5055856;28;20044;-90
2023/02/28 02:36:57;;;;;;;0.97;0.40;;;3.10;84.80;;;;;;5058353;28;20052;-90
2023/02/28 02:39:49;;;;;;;1.80;0.50;;;3.10;84.80;;;;;;5074699;28;20127;-90
2023/02/28 02:42:50;;;;;;;1.07;0.40;;;3.10;84.80;;;;;;5061386;28;20057;-90
2023/02/28 02:45:27;;;;;;;1.40;0.50;;;3.10;84.70;;;;;;5089220;28;20044;-90
2023/02/28 02:48:00;;;;;;;1.80;0.67;;;3.10;84.80;;;;;;5075368;28;20048;-90
2023/02/28 02:50:38;;;;;;;2.00;0.60;;;3.10;84.80;;;;;;5070389;28;20045;-90
2023/02/28 02:53:08;;;;;;;1.87;0.30;;;3.20;84.90;;;;;;5066193;28;20093;-90
2023/02/28 02:55:41;;;;;;;0.97;0.40;;;3.20;84.90;;;;;;5086013;28;20128;-90
2023/02/28 02:58:16;;;;;;;3.33;0.50;;;3.20;84.90;;;;;;5082965;28;20127;-90
2023/02/28 03:00:48;;;;;;;1.70;0.60;;;3.20;84.80;;;;;;5057962;28;20045;-90
2023/02/28 03:03:28;;;;;;;1.38;0.60;;;3.20;84.80;;;;;;5074551;28;20048;-89
2023/02/28 03:05:58;;;;;;;1.45;0.57;;;3.20;84.80;;;;;;5074659;28;20470;-90
2023/02/28 03:08:33;;;;;;;1.52;0.60;;;3.20;84.80;;;;;;5055195;28;20041;-90
2023/02/28 03:11:02;;;;;;;;;;;3.20;84.90;;;;;;5056225;28;20045;-90
2023/02/28 03:13:38;;;;;;;1.17;0.50;;;3.10;84.90;;;;;;5080601;28;19952;-90
2023/02/28 03:16:36;;;;;;;2.27;0.70;;;3.10;84.80;;;;;;5073155;28;20051;-90
2023/02/28 03:19:32;;;;;;;1.33;0.70;;;3.10;84.70;;;;;;5071015;28;20048;-90
2023/02/28 03:22:28;;;;;;;1.30;0.50;;;3.10;84.80;;;;;;5062629;28;20087;-91
2023/02/28 03:25:20;;;;;;;1.63;0.60;;;3.10;84.70;;;;;;5074055;28;20125;-90
2023/02/28 03:28:15;;;;;;;0.90;0.40;;;3.10;84.70;;;;;;5057279;28;20041;-90
2023/02/28 03:31:08;;;;;;;1.75;0.50;;;3.10;84.70;;;;;;5053882;28;20047;-90
2023/02/28 03:33:41;;;;;;;2.05;0.63;;;3.10;84.80;;;;;;5056440;28;20047;-90
2023/02/28 03:36:22;;;;;;;1.90;0.40;;;3.10;84.80;;;;;;5054265;28;20499;-90
2023/02/28 03:39:03;;;;;;;1.55;0.60;;;3.10;84.80;;;;;;5074616;28;20048;-90
2023/02/28 03:42:02;;;;;;;1.52;0.55;;;3.10;84.80;;;;;;5074739;28;20068;-90
2023/02/28 03:44:39;;;;;;;1.40;0.60;;;3.10;84.70;;;;;;5063692;28;20071;-90
2023/02/28 03:47:24;;;;;;;1.37;0.40;;;3.10;84.70;;;;;;5067784;28;20415;-89
2023/02/28 03:50:01;;;;;;;1.05;0.43;;;3.10;84.60;;;;;;5083235;28;20053;-89
2023/02/28 03:52:34;;;;;;;1.42;0.65;;;3.10;84.70;;;;;;5079380;28;20061;-90
2023/02/28 03:55:06;;;;;;;2.10;0.70;;;3.10;84.60;;;;;;5073217;28;20529;-90
2023/02/28 03:58:14;;;;;;;1.58;0.57;;;3.10;84.60;;;;;;5060921;28;20045;-90
2023/02/28 04:00:48;;;;;;;1.10;0.50;;;3.10;84.40;;;;;;5070674;28;20045;-90
2023/02/28 04:03:16;;;;;;;2.33;0.65;;;3.10;84.50;;;;;;5043648;28;20052;-89
2023/02/28 04:05:58;;;;;;;1.08;0.43;;;3.10;84.50;;;;;;5085459;28;20045;-90
2023/02/28 04:08:28;;;;;;;0.80;0.47;;;3.10;84.40;;;;;;5082019;28;20045;-89
2023/02/28 04:11:06;;;;;;;1.40;0.50;;;3.10;84.40;;;;;;5070511;28;20389;-89
2023/02/28 04:13:33;;;;;;;1.10;0.45;;;3.10;84.40;;;;;;5053518;28;20589;-89
2023/02/28 04:16:01;;;;;;;1.50;0.50;;;3.10;84.40;;;;;;5067396;28;20044;-90
2023/02/28 04:18:36;;;;;;;1.20;0.40;;;3.10;84.30;;;;;;5054287;28;20140;-90
2023/02/28 04:21:03;;;;;;;1.10;0.50;;;3.10;84.20;;;;;;5050076;28;20053;-90
2023/02/28 04:23:31;;;;;;;2.13;0.50;;;3.10;84.20;;;;;;5075974;28;20045;-90
2023/02/28 04:25:58;;;;;;;0.68;0.40;;;3.10;84.10;;;;;;5089297;28;20075;-90
2023/02/28 04:28:27;;;;;;;0.83;0.40;;;3.10;84.10;;;;;;5075004;28;20045;-90
2023/02/28 04:30:58;;;;;;;1.48;0.52;;;3.10;84.10;;;;;;5057612;28;20044;-90
2023/02/28 04:33:26;;;;;;;1.65;0.40;;;3.10;84.00;;;;;;5056734;28;20036;-90
2023/02/28 04:36:06;;;;;;;0.47;0.20;;;3.10;84.00;;;;;;5056376;28;20045;-90
2023/02/28 04:38:36;;;;;;;1.20;0.30;;;3.10;83.90;;;;;;5057736;28;20044;-90
2023/02/28 04:41:08;;;;;;;1.38;0.30;;;3.10;84.00;;;;;;5072435;28;20044;-89
2023/02/28 04:43:36;;;;;;;0.63;0.30;;;3.10;83.90;;;;;;5058282;28;20395;-89
2023/02/28 04:46:07;;;;;;;0.35;0.20;;;3.10;83.90;;;;;;5055975;28;20048;-90
2023/02/28 04:48:37;;;;;;;0.75;0.30;;;3.20;83.90;;;;;;5083263;28;20471;-90
2023/02/28 04:51:07;;;;;;;1.05;0.22;;;3.10;83.80;;;;;;5085567;28;20053;-90
2023/02/28 04:53:35;;;;;;;0.60;0.30;;;3.10;83.90;;;;;;5054240;28;20040;-90
2023/02/28 04:56:11;;;;;;;0.82;0.35;;;3.00;83.90;;;;;;5077364;28;20086;-90
2023/02/28 04:58:39;;;;;;;0.70;0.30;;;3.00;84.00;;;;;;5056251;28;20052;-90
2023/02/28 05:01:18;;;;;;;;;;;3.00;84.10;;;;;;5068579;28;20518;-89
2023/02/28 05:03:46;;;;;;;1.15;0.40;;;2.90;84.20;;;;;;5071675;28;19921;-90
2023/02/28 05:06:14;;;;;;;2.03;0.65;;;2.90;84.20;;;;;;5072165;28;20055;-86
2023/02/28 05:08:44;;;;;;;2.78;0.63;;;2.90;84.10;;;;;;5054937;28;20075;-85
2023/02/28 05:11:23;;;;;;;1.73;0.60;;;2.90;84.20;;;;;;5065181;28;20036;-86
2023/02/28 05:13:51;;;;;;;1.58;0.40;;;2.80;84.20;;;;;;5062461;28;20123;-85
2023/02/28 05:16:21;;;;;;;1.65;0.50;;;2.80;84.20;;;;;;5041376;28;20053;-85
2023/02/28 05:18:49;;;;;;;1.60;0.67;;;2.80;84.30;;;;;;5065497;28;20044;-86
2023/02/28 05:21:28;;;;;;;1.15;0.40;;;2.80;84.30;;;;;;5087300;28;20486;-85
2023/02/28 05:24:24;;;;;;;;;;;;;;;;;;;;;
2023/02/28 05:26:55;;;;;;;1.05;0.47;;;2.70;84.20;;;;;;5057216;28;20037;-85
2023/02/28 05:29:27;;;;;;;1.88;0.40;;;2.70;84.30;;;;;;5064897;28;20064;-85
2023/02/28 05:32:01;;;;;;;0.90;0.40;;;2.70;84.30;;;;;;5045175;28;20045;-85
2023/02/28 05:35:05;;;;;;;0.93;0.30;;;2.80;84.30;;;;;;5072598;28;20513;-85
2023/02/28 05:37:37;;;;;;;0.68;0.25;;;2.80;84.40;;;;;;5062643;28;20160;-85
2023/02/28 05:40:10;;;;;;;0.93;0.40;;;2.80;84.30;;;;;;5055890;28;20432;-85
2023/02/28 05:42:54;;;;;;;1.33;0.30;;;2.80;84.30;;;;;;5063853;28;20049;-85
2023/02/28 05:45:24;;;;;;;1.48;0.50;;;2.90;84.40;;;;;;5066811;28;20048;-85
2023/02/28 05:47:56;;;;;;;0.40;0.20;;;2.80;84.30;;;;;;5075043;28;20068;-85
2023/02/28 05:50:27;;;;;;;1.00;0.20;;;2.90;84.30;;;;;;5057332;28;20060;-85
2023/02/28 05:52:55;;;;;;;0.85;0.20;;;2.90;84.30;;;;;;5048886;28;20067;-85
2023/02/28 05:55:25;;;;;;;0.30;0.10;;;2.90;84.30;;;;;;5066474;28;20041;-85
2023/02/28 05:57:55;;;;;;;0.20;0.10;;;2.90;84.30;;;;;;5072753;28;20101;-85
2023/02/28 06:00:23;;;;;;;0.80;0.20;;;2.90;84.20;;;;;;5071702;28;20094;-85
2023/02/28 06:02:53;;;;;;;1.00;0.20;;;2.90;84.30;;;;;;5079460;28;20173;-85
2023/02/28 06:05:21;;;;;;;0.32;0.20;;;2.90;84.20;;;;;;5075215;28;20139;-85
2023/02/28 06:07:52;;;;;;;0.20;0.20;;;2.90;84.20;;;;;;5074370;28;20041;-84
2023/02/28 06:10:25;;;;;;;0.50;0.15;;;2.90;84.20;;;;;;5074613;28;20585;-85
2023/02/28 06:12:53;;;;;;;0.95;0.17;;;2.90;84.20;;;;;;5068742;28;20055;-84
2023/02/28 06:15:20;;;;;;;1.38;0.20;;;2.90;84.20;;;;;;5090342;28;20562;-84
2023/02/28 06:17:47;;;;;;;0.63;0.20;;;2.90;84.10;;;;;;5072935;28;20119;-85
2023/02/28 06:20:15;;;;;;;0.50;0.20;;;2.90;84.10;;;;;;5045299;28;20486;-85
2023/02/28 06:22:42;;;;;;;0.50;0.20;;;2.90;84.10;;;;;;5057556;28;20044;-85
2023/02/28 06:25:10;;;;;;;0.17;0.10;;;2.90;84.10;;;;;;5057947;28;20148;-85
2023/02/28 06:27:39;;;;;;;0.50;0.20;;;3.00;84.10;;;;;;5081776;28;20041;-84
2023/02/28 06:30:10;;;;;;;0.70;0.20;;;3.00;84.10;;;;;;5055984;28;20098;-85
2023/02/28 06:32:38;;;;;;;0.27;0.10;;;3.00;84.10;;;;;;5077550;28;20040;-85
2023/02/28 06:35:08;;;;;;;0.20;0.20;;;3.00;84.10;;;;;;5076902;28;20090;-85
2023/02/28 06:37:37;;;;;;;;;;;3.00;84.10;;;;;;5057909;28;20579;-85
2023/02/28 06:40:10;;;;;;;0.20;0.10;;;3.00;84.20;;;;;;5070803;28;20465;-85
2023/02/28 06:42:38;;;;;;;0.73;0.10;;;3.00;84.20;;;;;;5073051;28;20048;-85
2023/02/28 06:45:08;;;;;;;0.43;0.10;;;3.00;84.10;;;;;;5057827;28;20589;-85
2023/02/28 06:47:39;;;;;;;;;;;3.00;84.10;;;;;;5057736;28;20052;-85
2023/02/28 06:50:09;;;;;;;0.38;0.20;;;3.00;84.30;;;;;;5058699;28;19928;-85
2023/02/28 06:52:37;;;;;;;0.80;0.20;;;3.00;84.20;;;;;;5065718;28;20049;-85
2023/02/28 06:55:08;;;;;;;0.82;0.30;;;3.00;84.00;;;;;;5046809;28;20072;-85
2023/02/28 06:57:35;;;;;;;0.50;0.23;;;3.10;84.00;;;;;;5077467;28;20076;-85
2023/02/28 07:00:08;;;;;;;0.73;0.20;;;3.10;83.90;;;;;;5064196;28;20123;-85
2023/02/28 07:02:37;;;;;;;0.43;0.20;;;3.10;83.70;;;;;;5073421;28;20044;-85
2023/02/28 07:05:08;;;;;;;0.63;0.20;;;3.20;83.70;;;;;;5057257;28;20094;-85
2023/02/28 07:07:40;;;;;;;0.65;0.22;;;3.20;83.70;;;;;;5085703;28;20043;-85
2023/02/28 07:10:08;;;;;;;0.47;0.25;;;3.20;83.70;;;;;;5082239;28;20106;-85
2023/02/28 07:12:38;;;;;;;0.60;0.20;;;3.20;83.60;;;;;;5056985;28;20036;-85
2023/02/28 07:15:06;;;;;;;0.40;0.20;;;3.20;83.90;;;;;;5069587;28;20087;-85
2023/02/28 07:17:34;;;;;;;0.85;0.40;;;3.20;83.40;;;;;;5063641;28;20059;-85
2023/02/28 07:20:04;;;;;;;0.98;0.28;;;3.20;83.40;;;;;;5056778;28;20059;-85
2023/02/28 07:22:31;;;;;;;1.07;0.20;;;3.30;83.40;;;;;;5057083;28;20052;-85
2023/02/28 07:25:03;;;;;;;0.85;0.30;;;3.30;83.40;;;;;;5073014;28;20097;-85
2023/02/28 07:27:37;;;;;;;0.63;0.20;;;3.30;83.40;;;;;;5070860;28;20508;-85
2023/02/28 07:30:05;;;;;;;0.98;0.28;;;3.30;83.40;;;;;;5087787;28;20070;-85
2023/02/28 07:32:36;;;;;;;0.47;0.20;;;3.20;83.40;;;;;;5073420;28;20052;-85
2023/02/28 07:35:06;;;;;;;0.93;0.20;;;3.20;83.60;;;;;;5059312;28;20045;-85
2023/02/28 07:37:36;;;;;;;0.80;0.30;;;3.10;83.40;;;;;;5056367;28;20087;-85
2023/02/28 07:40:09;;;;;;;1.90;0.47;;;3.10;83.50;;;;;;5071882;28;20056;-85
2023/02/28 07:42:43;;;;;;;0.80;0.30;;;3.10;83.50;;;;;;5072707;28;20049;-85
2023/02/28 07:45:12;;;;;;;1.45;0.50;;;3.10;83.40;;;;;;5053860;28;20041;-85
2023/02/28 07:47:46;;;;;;;0.88;0.40;;;3.10;83.30;;;;;;5070968;28;20132;-84
2023/02/28 07:50:15;;;;;;;1.55;0.50;;;3.20;83.20;;;;;;5051658;28;20449;-85
2023/02/28 07:52:51;;;;;;;1.38;0.50;;;3.30;83.10;;;;;;5056209;28;20052;-86
2023/02/28 07:55:19;;;;;;;0.93;0.40;;;3.30;83.00;;;;;;5070339;28;20055;-85
2023/02/28 07:58:01;;;;;;;1.30;0.30;;;3.40;82.90;;;;;;5047233;28;20064;-86
2023/02/28 08:00:39;;;;;;;1.50;0.40;;;3.40;82.70;;;;;;5066330;28;20041;-86
2023/02/28 08:03:12;;;;;;;1.33;0.40;;;3.40;82.50;;;;;;5080482;28;20066;-85
2023/02/28 08:05:43;;;;;;;0.40;0.27;;;3.40;82.60;;;;;;5058887;28;20056;-85
2023/02/28 08:08:13;;;;;;;0.95;0.55;;;3.40;82.60;;;;;;5056264;28;20131;-85
2023/02/28 08:10:41;;;;;;;1.85;0.55;;;3.30;82.50;;;;;;5070069;28;20052;-85
2023/02/28 08:13:09;;;;;;;1.48;0.60;;;3.30;82.50;;;;;;5070902;28;20147;-86
2023/02/28 08:15:42;;;;;;;1.13;0.50;;;3.30;82.40;;;;;;5069854;28;20041;-85
2023/02/28 08:18:10;;;;;;;1.27;0.50;;;3.30;82.20;;;;;;5066503;28;20045;-86
2023/02/28 08:20:38;;;;;;;1.17;0.50;;;3.30;82.20;;;;;;5060669;28;20412;-86
2023/02/28 08:23:06;;;;;;;1.58;0.50;;;3.30;82.00;;;;;;5057041;28;20088;-92
2023/02/28 08:25:33;;;;;;;1.63;0.60;;;3.30;81.80;;;;;;5072890;28;20051;-92
2023/02/28 08:28:00;;;;;;;2.55;1.70;;;3.30;81.50;;;;;;5073365;28;20045;-91
2023/02/28 08:30:33;;;;;;;1.98;0.68;;;3.30;81.20;;;;;;5073259;28;20040;-92
2023/02/28 08:33:04;;;;;;;1.10;0.55;;;3.30;80.90;;;;;;5072320;28;20056;-91
2023/02/28 08:35:35;;;;;;;1.03;0.33;;;3.30;80.70;;;;;;5061906;28;20071;-92
2023/02/28 08:38:02;;;;;;;1.30;0.40;;;3.30;80.60;;;;;;5064737;28;20465;-92
2023/02/28 08:40:32;;;;;;;2.03;0.63;;;3.30;80.50;;;;;;5069972;28;20136;-92
2023/02/28 08:43:13;;;;;;;2.42;0.45;;;3.40;80.40;;;;;;5073441;28;20056;-91
2023/02/28 08:45:45;;;;;;;1.55;0.60;;;3.40;80.30;;;;;;5060172;28;20048;-91
2023/02/28 08:48:22;;;;;;;0.98;0.47;;;3.40;80.00;;;;;;5056415;28;20051;-91
2023/02/28 08:51:07;;;;;;;1.25;0.40;;;3.40;79.70;;;;;;5072500;28;20405;-93
2023/02/28 08:53:42;;;;;;;1.25;0.50;;;3.40;79.40;;;;;;5089150;28;20051;-92
2023/02/28 08:56:16;;;;;;;1.42;0.50;;;3.40;79.40;;;;;;5088910;28;20131;-92
2023/02/28 08:58:51;;;;;;;1.20;0.50;;;3.40;79.30;;;;;;5053666;28;20068;-90
2023/02/28 09:01:28;;;;;;;0.83;0.43;;;3.40;79.20;;;;;;5039818;28;20045;-91
2023/02/28 09:06:53;;;;;;;2.80;0.52;;;3.40;78.80;;;;;;5069999;28;20052;-93
2023/02/28 09:10:05;;;;;;;1.65;0.55;;;3.40;78.80;;;;;;5075848;28;20045;-91
2023/02/28 09:12:36;;;;;;;1.33;0.50;;;3.40;78.50;;;;;;5072255;28;20040;-88
2023/02/28 09:15:04;;;;;;;1.17;0.33;;;3.40;78.20;;;;;;5040410;28;20065;-90
2023/02/28 09:17:38;;;;;;;0.88;0.40;;;3.40;78.40;;;;;;5040022;28;20041;-92
2023/02/28 09:20:09;;;;;;;1.27;0.43;;;3.50;78.00;;;;;;5072982;28;20558;-92
2023/02/28 09:22:36;;;;;;;1.42;0.40;;;3.50;78.00;;;;;;5076303;28;20139;-92
2023/02/28 09:25:25;;;;;;;;;;;;;;;;;;;;;
2023/02/28 09:28:16;;;;;;;1.35;0.45;;;3.60;77.50;;;;;;5072428;28;20041;-87
2023/02/28 09:30:57;;;;;;;1.77;0.60;;;3.60;77.30;;;;;;5064701;28;20045;-86
2023/02/28 09:33:36;;;;;;;0.60;0.28;;;3.60;76.90;;;;;;5065689;28;20056;-87
2023/02/28 09:36:08;;;;;;;0.43;0.30;;;3.60;76.80;;;;;;5075721;28;20094;-87
2023/02/28 09:38:40;;;;;;;0.70;0.20;;;3.70;76.50;;;;;;5075350;28;20044;-87
2023/02/28 09:41:25;;;;;;;0.85;0.35;;;3.70;76.30;;;;;;5059630;28;20045;-87
2023/02/28 09:43:56;;;;;;;;;;;3.70;76.20;;;;;;5063038;28;20596;-83
2023/02/28 09:46:40;;;;;;;0.68;0.30;;;3.70;76.40;;;;;;5075363;28;19920;-85
2023/02/28 09:49:15;;;;;;;0.63;0.30;;;3.70;76.20;;;;;;5081270;28;20131;-83
2023/02/28 09:52:36;;;;;;;0.75;0.30;;;3.80;76.10;;;;;;5061667;28;20052;-87
2023/02/28 09:55:37;;;;;;;1.33;0.40;;;3.80;75.70;;;;;;5040231;28;20041;-84
2023/02/28 09:58:58;;;;;;;0.63;0.30;;;3.80;75.30;;;;;;5083961;28;20127;-88
2023/02/28 10:02:39;;;;;;;1.25;0.40;;;3.90;75.40;;;;;;5069845;28;20055;-84
2023/02/28 10:05:19;;;;;;;2.03;0.30;;;3.90;75.10;;;;;;5056234;28;20047;-87
2023/02/28 10:08:24;;;;;;;0.75;0.32;;;3.90;75.10;;;;;;5057215;28;20060;-86
2023/02/28 10:11:06;;;;;;;0.63;0.32;;;4.00;74.80;;;;;;5067900;28;20048;-84
2023/02/28 10:14:12;;;;;;;0.82;0.30;;;4.00;74.40;;;;;;5066216;28;20037;-87
2023/02/28 10:17:08;;;;;;;2.17;0.30;;;4.10;74.40;;;;;;5074875;28;20045;-89
2023/02/28 10:20:01;;;;;;;0.82;0.30;;;4.10;73.90;;;;;;5056364;28;20052;-87
2023/02/28 10:22:50;;;;;;;0.85;0.40;;;4.10;73.60;;;;;;5049520;28;20127;-93
2023/02/28 10:25:49;;;;;;;;;;;;;;;;;;;;;
2023/02/28 10:28:32;;;;;;;0.77;0.30;;;4.20;72.90;;;;;;5076063;28;20048;-95
2023/02/28 10:31:25;;;;;;;1.38;0.30;;;4.20;73.00;;;;;;5075430;28;20102;-94
2023/02/28 10:34:23;;;;;;;;;;;;;;;;;;;;;
2023/02/28 10:37:47;;;;;;;;;;;;;;;;;;;;;
2023/02/28 10:46:15;;;;;;;0.50;0.30;;;4.40;72.00;;;;;;4975850;28;20117;-93
2023/02/28 10:49:17;;;;;;;0.65;0.30;;;4.40;71.90;;;;;;4940058;28;20043;-88
2023/02/28 10:52:41;;;;;;;1.80;0.38;;;4.30;72.00;;;;;;4974512;28;20057;-89
2023/02/28 10:55:35;;;;;;;0.70;0.30;;;4.40;72.10;;;;;;5037433;28;20055;-89
2023/02/28 10:58:32;;;;;;;0.60;0.30;;;4.40;72.20;;;;;;5090749;28;20094;-89
2023/02/28 11:02:35;;;;;;;;;;;;;;;;;;;;;
2023/02/28 11:05:35;;;;;;;0.38;0.20;;;4.40;71.50;;;;;;5017151;28;20077;-87
2023/02/28 11:08:12;;;;;;;1.23;0.30;;;4.40;71.70;;;;;;4998716;28;20038;-86
2023/02/28 11:10:44;;;;;;;0.77;0.30;;;4.40;71.70;;;;;;5054585;28;20041;-84
2023/02/28 11:13:25;;;;;;;1.20;0.40;;;4.40;71.60;;;;;;5059744;28;20045;-86
2023/02/28 11:16:16;;;;;;;1.30;0.30;;;4.40;72.00;;;;;;5053823;28;20041;-85
2023/02/28 11:19:05;;;;;;;2.10;0.30;;;4.50;71.20;;;;;;5067058;28;20052;-85
2023/02/28 11:21:50;;;;;;;0.70;0.35;;;4.50;71.10;;;;;;5040771;28;20059;-87
2023/02/28 11:24:31;;;;;;;1.13;0.30;;;4.60;70.70;;;;;;5070569;28;20505;-86
2023/02/28 11:26:59;;;;;;;1.10;0.30;;;4.60;70.50;;;;;;5051577;28;20040;-84
2023/02/28 11:29:30;;;;;;;2.72;0.65;;;4.60;70.40;;;;;;5073281;28;20041;-88
2023/02/28 11:32:24;;;;;;;0.85;0.40;;;4.70;70.40;;;;;;5055125;28;20044;-87
2023/02/28 11:35:25;;;;;;;3.22;0.30;;;4.70;70.10;;;;;;5056702;28;20041;-88
2023/02/28 11:38:02;;;;;;;0.65;0.30;;;4.70;70.40;;;;;;5066072;28;20049;-87
2023/02/28 11:40:58;;;;;;;1.40;0.43;;;4.80;70.10;;;;;;5066347;28;20049;-83
2023/02/28 11:43:51;;;;;;;0.98;0.50;;;4.80;69.90;;;;;;5056048;28;20051;-84
2023/02/28 11:46:46;;;;;;;1.05;0.43;;;4.90;69.60;;;;;;5083333;28;20049;-83
2023/02/28 11:49:25;;;;;;;0.98;0.50;;;4.90;69.00;;;;;;5053978;28;20112;-84
2023/02/28 11:52:15;;;;;;;;;;;;;;;;;;;;;
2023/02/28 11:55:19;;;;;;;1.45;0.50;;;4.90;68.80;;;;;;5064046;28;20041;-87
2023/02/28 11:58:01;;;;;;;0.90;0.60;;;4.90;69.00;;;;;;5061358;28;20036;-88
2023/02/28 12:00:33;;;;;;;1.05;0.30;;;5.00;69.00;;;;;;5053646;28;20131;-87
2023/02/28 12:03:21;;;;;;;0.85;0.40;;;4.90;68.90;;;;;;5051383;28;20087;-85
2023/02/28 12:05:57;;;;;;;1.17;0.43;;;5.00;68.80;;;;;;5084195;28;20091;-85
2023/02/28 12:09:02;;;;;;;1.75;0.40;;;5.00;68.80;;;;;;5042000;28;20042;-91
2023/02/28 12:11:42;;;;;;;0.40;0.30;;;5.00;68.80;;;;;;5058800;28;20040;-87
2023/02/28 12:14:32;;;;;;;0.73;0.30;;;5.00;69.00;;;;;;5065281;28;20131;-83
2023/02/28 12:17:28;;;;;;;0.55;0.40;;;5.00;68.50;;;;;;5073015;28;20048;-89
2023/02/28 12:20:22;;;;;;;0.52;0.30;;;5.10;68.40;;;;;;5055843;28;20052;-88
2023/02/28 12:23:00;;;;;;;1.52;0.47;;;5.10;68.40;;;;;;5055333;28;20115;-88
2023/02/28 12:25:59;;;;;;;1.25;0.60;;;5.20;67.90;;;;;;5075058;28;20036;-85
2023/02/28 12:28:32;;;;;;;0.80;0.30;;;5.30;67.30;;;;;;5062096;28;20049;-87
2023/02/28 12:31:23;;;;;;;2.05;0.50;;;5.30;67.40;;;;;;5072216;28;20569;-85
2023/02/28 12:34:04;;;;;;;0.88;0.32;;;5.30;67.30;;;;;;5055773;28;20048;-85
2023/02/28 12:36:33;;;;;;;1.40;0.60;;;5.30;67.40;;;;;;5058625;28;20052;-87
2023/02/28 12:39:15;;;;;;;1.15;0.50;;;5.30;67.70;;;;;;5060207;28;20052;-87
2023/02/28 12:41:54;;;;;;;1.15;0.60;;;5.30;67.10;;;;;;5078156;28;20071;-90
2023/02/28 12:44:25;;;;;;;2.33;0.80;;;5.30;66.80;;;;;;5059362;28;20048;-85
2023/02/28 12:46:56;;;;;;;;;;;5.30;66.50;;;;;;5075677;28;20053;-83
2023/02/28 12:49:31;;;;;;;2.97;0.70;;;5.20;66.80;;;;;;5052225;28;19921;-85
2023/02/28 12:52:10;;;;;;;1.42;0.50;;;5.30;66.80;;;;;;5085638;28;20044;-89
2023/02/28 12:55:12;;;;;;;2.17;0.60;;;5.30;66.80;;;;;;5056512;28;20075;-94
2023/02/28 12:58:13;;;;;;;2.60;0.60;;;5.30;65.90;;;;;;5073125;28;20041;-94
2023/02/28 13:09:15;;;;;;;1.10;0.50;;;5.40;66.10;;;;;;5074526;28;20147;-90
2023/02/28 13:12:13;;;;;;;1.20;0.40;;;5.30;66.30;;;;;;5067893;28;20170;-87
2023/02/28 13:14:41;;;;;;;1.10;0.47;;;5.40;66.00;;;;;;5070655;28;20124;-88
2023/02/28 13:17:14;;;;;;;1.23;0.50;;;5.40;65.60;;;;;;5061853;28;20559;-87
2023/02/28 13:19:52;;;;;;;1.58;0.50;;;5.40;65.70;;;;;;5069541;28;20498;-88
2023/02/28 13:22:35;;;;;;;1.40;0.50;;;5.40;65.40;;;;;;5049863;28;20049;-86
2023/02/28 13:25:25;;;;;;;1.00;0.50;;;5.50;64.70;;;;;;5069904;28;20087;-88
2023/02/28 13:28:10;;;;;;;1.65;0.55;;;5.50;64.40;;;;;;5083456;28;20040;-87
2023/02/28 13:31:07;;;;;;;0.80;0.40;;;5.50;64.20;;;;;;5078970;28;20507;-86
2023/02/28 13:34:00;;;;;;;1.15;0.40;;;5.50;64.40;;;;;;5054603;28;20441;-85
2023/02/28 13:36:32;;;;;;;1.38;0.50;;;5.50;64.70;;;;;;5049421;28;20136;-86
2023/02/28 13:39:03;;;;;;;0.93;0.43;;;5.50;65.10;;;;;;5065228;28;20056;-86
2023/02/28 13:41:34;;;;;;;1.50;0.50;;;5.50;64.60;;;;;;5069244;28;20055;-84
2023/02/28 13:47:42;;;;;;;1.27;0.57;;;5.60;64.20;;;;;;5061497;28;20379;-87
2023/02/28 13:50:26;;;;;;;0.98;0.50;;;5.60;63.90;;;;;;5061256;28;20049;-89
2023/02/28 13:53:12;;;;;;;1.38;0.50;;;5.70;64.10;;;;;;5072129;28;20052;-87
2023/02/28 13:55:48;;;;;;;1.45;0.57;;;5.70;63.70;;;;;;5071960;28;20049;-86
2023/02/28 13:58:55;;;;;;;1.23;0.50;;;5.60;63.40;;;;;;5090242;28;20091;-92
2023/02/28 14:01:52;;;;;;;0.85;0.40;;;5.60;63.60;;;;;;5082717;28;20401;-87
2023/02/28 14:04:31;;;;;;;1.92;0.55;;;5.70;63.70;;;;;;5036281;28;20053;-89
2023/02/28 14:07:00;;;;;;;1.58;0.70;;;5.60;63.30;;;;;;5048850;28;20044;-88
2023/02/28 14:09:41;;;;;;;1.27;0.60;;;5.70;63.10;;;;;;5056801;28;20132;-91
2023/02/28 14:12:46;;;;;;;1.00;0.40;;;5.70;62.90;;;;;;5055764;28;20167;-84
2023/02/28 14:15:45;;;;;;;0.85;0.50;;;5.70;63.10;;;;;;5076925;28;20048;-85
2023/02/28 14:18:23;;;;;;;0.90;0.50;;;5.70;63.00;;;;;;5073016;28;20056;-85
2023/02/28 14:21:04;;;;;;;1.05;0.50;;;5.70;63.00;;;;;;5071313;28;20049;-84
2023/02/28 14:23:55;;;;;;;1.40;0.50;;;5.70;62.90;;;;;;5080389;28;20127;-84
2023/02/28 14:27:00;;;;;;;0.88;0.30;;;5.70;63.10;;;;;;5072713;28;20056;-85